sensor_id;sensor_type;location;lat;lon;timestamp;P1;durP1;ratioP1;P2;durP2;ratioP2
24681;SDS011;12802;53.390;-2.328;2023-11-19T00:01:53;43.13;;;8.57;;
24681;SDS011;12802;53.390;-2.328;2023-11-19T00:04:19;41.97;;;8.63;;
24681;SDS011;12802;53.390;-2.328;2023-11-19T00:06:45;34.55;;;8.32;;
24681;SDS011;12802;53.390;-2.328;2023-11-19T00:09:11;37.55;;;8.45;;
24681;SDS011;12802;53.390;-2.328;2023-11-19T00:11:38;39.78;;;8.63;;
24681;SDS011;12802;53.390;-2.328;2023-11-19T00:14:04;53.85;;;9.75;;
24681;SDS011;12802;53.390;-2.328;2023-11-19T00:16:33;43.47;;;8.13;;
24681;SDS011;12802;53.390;-2.328;2023-11-19T00:18:59;43.65;;;8.60;;
24681;SDS011;12802;53.390;-2.328;2023-11-19T00:21:26;41.35;;;8.75;;
24681;SDS011;12802;53.390;-2.328;2023-11-19T00:23:53;41.28;;;8.93;;
24681;SDS011;12802;53.390;-2.328;2023-11-19T00:26:20;42.90;;;8.73;;
24681;SDS011;12802;53.390;-2.328;2023-11-19T00:28:51;41.60;;;8.43;;
24681;SDS011;12802;53.390;-2.328;2023-11-19T00:31:18;40.90;;;7.07;;
24681;SDS011;12802;53.390;-2.328;2023-11-19T00:33:44;38.15;;;7.45;;
24681;SDS011;12802;53.390;-2.328;2023-11-19T00:36:11;34.15;;;7.13;;
24681;SDS011;12802;53.390;-2.328;2023-11-19T00:38:37;40.78;;;7.68;;
24681;SDS011;12802;53.390;-2.328;2023-11-19T00:41:03;36.28;;;7.63;;
24681;SDS011;12802;53.390;-2.328;2023-11-19T00:43:30;35.30;;;7.32;;
24681;SDS011;12802;53.390;-2.328;2023-11-19T00:45:56;34.20;;;6.88;;
24681;SDS011;12802;53.390;-2.328;2023-11-19T00:48:22;32.33;;;6.68;;
24681;SDS011;12802;53.390;-2.328;2023-11-19T00:50:48;32.90;;;6.57;;
24681;SDS011;12802;53.390;-2.328;2023-11-19T00:53:14;37.13;;;7.25;;
24681;SDS011;12802;53.390;-2.328;2023-11-19T00:55:40;30.15;;;6.80;;
24681;SDS011;12802;53.390;-2.328;2023-11-19T00:58:06;28.05;;;6.38;;
24681;SDS011;12802;53.390;-2.328;2023-11-19T01:00:32;27.55;;;5.90;;
24681;SDS011;12802;53.390;-2.328;2023-11-19T01:03:00;29.77;;;5.85;;
24681;SDS011;12802;53.390;-2.328;2023-11-19T01:05:26;34.50;;;6.95;;
24681;SDS011;12802;53.390;-2.328;2023-11-19T01:07:53;28.40;;;5.70;;
24681;SDS011;12802;53.390;-2.328;2023-11-19T01:10:20;22.52;;;6.05;;
24681;SDS011;12802;53.390;-2.328;2023-11-19T01:12:46;32.50;;;5.80;;
24681;SDS011;12802;53.390;-2.328;2023-11-19T01:15:12;29.33;;;6.78;;
24681;SDS011;12802;53.390;-2.328;2023-11-19T01:17:38;23.33;;;5.35;;
24681;SDS011;12802;53.390;-2.328;2023-11-19T01:20:04;25.05;;;5.63;;
24681;SDS011;12802;53.390;-2.328;2023-11-19T01:22:32;27.58;;;4.85;;
24681;SDS011;12802;53.390;-2.328;2023-11-19T01:24:59;29.45;;;5.82;;
24681;SDS011;12802;53.390;-2.328;2023-11-19T01:27:25;26.33;;;5.70;;
24681;SDS011;12802;53.390;-2.328;2023-11-19T01:29:51;20.42;;;5.15;;
24681;SDS011;12802;53.390;-2.328;2023-11-19T01:32:17;27.80;;;5.72;;
24681;SDS011;12802;53.390;-2.328;2023-11-19T01:34:44;27.13;;;6.20;;
24681;SDS011;12802;53.390;-2.328;2023-11-19T01:37:10;32.22;;;5.60;;
24681;SDS011;12802;53.390;-2.328;2023-11-19T01:42:38;32.83;;;6.47;;
24681;SDS011;12802;53.390;-2.328;2023-11-19T01:45:04;24.40;;;6.18;;
24681;SDS011;12802;53.390;-2.328;2023-11-19T01:47:34;31.17;;;6.85;;
24681;SDS011;12802;53.390;-2.328;2023-11-19T01:50:01;32.47;;;6.45;;
24681;SDS011;12802;53.390;-2.328;2023-11-19T01:52:32;41.35;;;7.55;;
24681;SDS011;12802;53.390;-2.328;2023-11-19T01:57:28;27.80;;;7.28;;
24681;SDS011;12802;53.390;-2.328;2023-11-19T01:59:54;40.30;;;7.10;;
24681;SDS011;12802;53.390;-2.328;2023-11-19T02:02:20;31.55;;;7.35;;
24681;SDS011;12802;53.390;-2.328;2023-11-19T02:04:50;34.83;;;6.72;;
24681;SDS011;12802;53.390;-2.328;2023-11-19T02:07:16;38.65;;;8.05;;
24681;SDS011;12802;53.390;-2.328;2023-11-19T02:09:43;33.00;;;6.70;;
24681;SDS011;12802;53.390;-2.328;2023-11-19T02:12:09;33.95;;;7.57;;
24681;SDS011;12802;53.390;-2.328;2023-11-19T02:14:37;23.55;;;6.07;;
24681;SDS011;12802;53.390;-2.328;2023-11-19T02:17:04;27.52;;;6.25;;
24681;SDS011;12802;53.390;-2.328;2023-11-19T02:19:30;37.15;;;6.72;;
24681;SDS011;12802;53.390;-2.328;2023-11-19T02:21:56;32.30;;;6.47;;
24681;SDS011;12802;53.390;-2.328;2023-11-19T02:24:22;29.48;;;7.13;;
24681;SDS011;12802;53.390;-2.328;2023-11-19T02:29:23;33.22;;;6.13;;
24681;SDS011;12802;53.390;-2.328;2023-11-19T02:31:49;38.83;;;7.60;;
24681;SDS011;12802;53.390;-2.328;2023-11-19T02:34:15;28.73;;;5.80;;
24681;SDS011;12802;53.390;-2.328;2023-11-19T02:36:41;28.23;;;5.65;;
24681;SDS011;12802;53.390;-2.328;2023-11-19T02:39:08;29.50;;;5.63;;
24681;SDS011;12802;53.390;-2.328;2023-11-19T02:41:38;30.02;;;5.97;;
24681;SDS011;12802;53.390;-2.328;2023-11-19T02:44:07;19.92;;;3.28;;
24681;SDS011;12802;53.390;-2.328;2023-11-19T02:46:33;29.40;;;5.93;;
24681;SDS011;12802;53.390;-2.328;2023-11-19T02:48:59;28.05;;;4.13;;
24681;SDS011;12802;53.390;-2.328;2023-11-19T02:51:25;34.97;;;5.70;;
24681;SDS011;12802;53.390;-2.328;2023-11-19T02:53:52;32.60;;;5.78;;
24681;SDS011;12802;53.390;-2.328;2023-11-19T02:56:19;25.40;;;5.63;;
24681;SDS011;12802;53.390;-2.328;2023-11-19T02:58:50;37.53;;;6.47;;
24681;SDS011;12802;53.390;-2.328;2023-11-19T03:01:25;34.53;;;5.75;;
24681;SDS011;12802;53.390;-2.328;2023-11-19T03:03:56;37.00;;;6.90;;
24681;SDS011;12802;53.390;-2.328;2023-11-19T03:06:23;31.80;;;6.07;;
24681;SDS011;12802;53.390;-2.328;2023-11-19T03:08:49;34.75;;;6.60;;
24681;SDS011;12802;53.390;-2.328;2023-11-19T03:11:16;26.75;;;6.05;;
24681;SDS011;12802;53.390;-2.328;2023-11-19T03:13:42;36.08;;;5.82;;
24681;SDS011;12802;53.390;-2.328;2023-11-19T03:16:08;37.53;;;6.38;;
24681;SDS011;12802;53.390;-2.328;2023-11-19T03:18:34;32.15;;;6.35;;
24681;SDS011;12802;53.390;-2.328;2023-11-19T03:21:00;39.42;;;6.78;;
24681;SDS011;12802;53.390;-2.328;2023-11-19T03:23:28;27.75;;;5.88;;
24681;SDS011;12802;53.390;-2.328;2023-11-19T03:25:54;31.95;;;5.68;;
24681;SDS011;12802;53.390;-2.328;2023-11-19T03:28:22;37.50;;;6.40;;
24681;SDS011;12802;53.390;-2.328;2023-11-19T03:30:48;40.65;;;6.60;;
24681;SDS011;12802;53.390;-2.328;2023-11-19T03:33:14;37.70;;;6.40;;
24681;SDS011;12802;53.390;-2.328;2023-11-19T03:35:41;34.22;;;6.22;;
24681;SDS011;12802;53.390;-2.328;2023-11-19T03:38:07;41.33;;;6.57;;
24681;SDS011;12802;53.390;-2.328;2023-11-19T03:40:33;30.30;;;5.85;;
24681;SDS011;12802;53.390;-2.328;2023-11-19T03:42:59;27.30;;;5.85;;
24681;SDS011;12802;53.390;-2.328;2023-11-19T03:45:25;45.63;;;7.43;;
24681;SDS011;12802;53.390;-2.328;2023-11-19T03:47:51;38.75;;;6.65;;
24681;SDS011;12802;53.390;-2.328;2023-11-19T03:50:17;36.38;;;6.43;;
24681;SDS011;12802;53.390;-2.328;2023-11-19T03:52:45;31.98;;;6.07;;
24681;SDS011;12802;53.390;-2.328;2023-11-19T03:55:11;33.17;;;6.10;;
24681;SDS011;12802;53.390;-2.328;2023-11-19T03:57:38;30.40;;;6.45;;
24681;SDS011;12802;53.390;-2.328;2023-11-19T04:00:04;35.13;;;5.88;;
24681;SDS011;12802;53.390;-2.328;2023-11-19T04:02:39;31.80;;;6.43;;
24681;SDS011;12802;53.390;-2.328;2023-11-19T04:05:06;34.78;;;6.53;;
24681;SDS011;12802;53.390;-2.328;2023-11-19T04:07:32;33.08;;;5.95;;
24681;SDS011;12802;53.390;-2.328;2023-11-19T04:09:58;30.80;;;6.18;;
24681;SDS011;12802;53.390;-2.328;2023-11-19T04:12:25;29.55;;;5.50;;
24681;SDS011;12802;53.390;-2.328;2023-11-19T04:14:51;36.75;;;6.57;;
24681;SDS011;12802;53.390;-2.328;2023-11-19T04:17:18;28.48;;;6.03;;
24681;SDS011;12802;53.390;-2.328;2023-11-19T04:19:44;32.58;;;5.95;;
24681;SDS011;12802;53.390;-2.328;2023-11-19T04:22:10;36.63;;;6.75;;
24681;SDS011;12802;53.390;-2.328;2023-11-19T04:24:36;31.48;;;5.53;;
24681;SDS011;12802;53.390;-2.328;2023-11-19T04:27:04;35.90;;;6.28;;
24681;SDS011;12802;53.390;-2.328;2023-11-19T04:29:31;30.88;;;6.30;;
24681;SDS011;12802;53.390;-2.328;2023-11-19T04:31:58;33.78;;;5.90;;
24681;SDS011;12802;53.390;-2.328;2023-11-19T04:34:26;32.38;;;5.43;;
24681;SDS011;12802;53.390;-2.328;2023-11-19T04:36:52;35.25;;;5.35;;
24681;SDS011;12802;53.390;-2.328;2023-11-19T04:39:18;23.85;;;4.47;;
24681;SDS011;12802;53.390;-2.328;2023-11-19T04:41:47;22.92;;;5.40;;
24681;SDS011;12802;53.390;-2.328;2023-11-19T04:44:14;28.50;;;4.60;;
24681;SDS011;12802;53.390;-2.328;2023-11-19T04:46:41;25.55;;;5.55;;
24681;SDS011;12802;53.390;-2.328;2023-11-19T04:49:11;26.23;;;3.88;;
24681;SDS011;12802;53.390;-2.328;2023-11-19T04:54:07;19.70;;;3.55;;
24681;SDS011;12802;53.390;-2.328;2023-11-19T04:56:33;18.13;;;3.53;;
24681;SDS011;12802;53.390;-2.328;2023-11-19T04:59:01;16.67;;;2.47;;
24681;SDS011;12802;53.390;-2.328;2023-11-19T05:01:27;13.75;;;2.70;;
24681;SDS011;12802;53.390;-2.328;2023-11-19T05:03:54;13.35;;;2.72;;
24681;SDS011;12802;53.390;-2.328;2023-11-19T05:06:20;10.77;;;2.28;;
24681;SDS011;12802;53.390;-2.328;2023-11-19T05:08:46;9.00;;;2.00;;
24681;SDS011;12802;53.390;-2.328;2023-11-19T05:11:12;12.75;;;2.70;;
24681;SDS011;12802;53.390;-2.328;2023-11-19T05:13:43;13.30;;;2.65;;
24681;SDS011;12802;53.390;-2.328;2023-11-19T05:16:10;17.77;;;3.10;;
24681;SDS011;12802;53.390;-2.328;2023-11-19T05:18:36;14.80;;;2.63;;
24681;SDS011;12802;53.390;-2.328;2023-11-19T05:21:02;11.63;;;2.78;;
24681;SDS011;12802;53.390;-2.328;2023-11-19T05:23:28;21.63;;;3.63;;
24681;SDS011;12802;53.390;-2.328;2023-11-19T05:25:54;16.10;;;3.25;;
24681;SDS011;12802;53.390;-2.328;2023-11-19T05:28:21;17.88;;;2.90;;
24681;SDS011;12802;53.390;-2.328;2023-11-19T05:30:49;18.05;;;3.22;;
24681;SDS011;12802;53.390;-2.328;2023-11-19T05:33:15;12.80;;;3.45;;
24681;SDS011;12802;53.390;-2.328;2023-11-19T05:35:41;20.48;;;3.42;;
24681;SDS011;12802;53.390;-2.328;2023-11-19T05:38:07;20.00;;;3.50;;
24681;SDS011;12802;53.390;-2.328;2023-11-19T05:40:34;16.63;;;2.97;;
24681;SDS011;12802;53.390;-2.328;2023-11-19T05:43:01;18.55;;;3.22;;
24681;SDS011;12802;53.390;-2.328;2023-11-19T05:45:27;18.42;;;3.97;;
24681;SDS011;12802;53.390;-2.328;2023-11-19T05:47:53;14.10;;;3.28;;
24681;SDS011;12802;53.390;-2.328;2023-11-19T05:50:19;22.25;;;3.95;;
24681;SDS011;12802;53.390;-2.328;2023-11-19T05:52:45;18.55;;;3.88;;
24681;SDS011;12802;53.390;-2.328;2023-11-19T05:55:12;22.65;;;3.67;;
24681;SDS011;12802;53.390;-2.328;2023-11-19T05:57:39;20.80;;;4.03;;
24681;SDS011;12802;53.390;-2.328;2023-11-19T06:00:05;20.70;;;3.88;;
24681;SDS011;12802;53.390;-2.328;2023-11-19T06:02:36;26.20;;;4.22;;
24681;SDS011;12802;53.390;-2.328;2023-11-19T06:05:03;19.45;;;3.78;;
24681;SDS011;12802;53.390;-2.328;2023-11-19T06:07:31;23.45;;;4.07;;
24681;SDS011;12802;53.390;-2.328;2023-11-19T06:09:57;17.25;;;3.20;;
24681;SDS011;12802;53.390;-2.328;2023-11-19T06:12:23;22.58;;;3.83;;
24681;SDS011;12802;53.390;-2.328;2023-11-19T06:14:49;23.58;;;3.90;;
24681;SDS011;12802;53.390;-2.328;2023-11-19T06:17:15;23.98;;;4.25;;
24681;SDS011;12802;53.390;-2.328;2023-11-19T06:19:42;23.02;;;3.90;;
24681;SDS011;12802;53.390;-2.328;2023-11-19T06:22:08;21.48;;;4.15;;
24681;SDS011;12802;53.390;-2.328;2023-11-19T06:24:34;27.75;;;5.20;;
24681;SDS011;12802;53.390;-2.328;2023-11-19T06:27:00;25.30;;;4.32;;
24681;SDS011;12802;53.390;-2.328;2023-11-19T06:29:26;26.65;;;4.57;;
24681;SDS011;12802;53.390;-2.328;2023-11-19T06:31:52;26.40;;;5.00;;
24681;SDS011;12802;53.390;-2.328;2023-11-19T06:34:18;21.45;;;4.78;;
24681;SDS011;12802;53.390;-2.328;2023-11-19T06:36:44;28.27;;;5.28;;
24681;SDS011;12802;53.390;-2.328;2023-11-19T06:39:10;25.70;;;4.55;;
24681;SDS011;12802;53.390;-2.328;2023-11-19T06:41:37;23.13;;;4.28;;
24681;SDS011;12802;53.390;-2.328;2023-11-19T06:44:04;21.92;;;4.28;;
24681;SDS011;12802;53.390;-2.328;2023-11-19T06:46:30;27.90;;;3.95;;
24681;SDS011;12802;53.390;-2.328;2023-11-19T06:48:57;25.42;;;3.90;;
24681;SDS011;12802;53.390;-2.328;2023-11-19T06:51:23;21.00;;;4.28;;
24681;SDS011;12802;53.390;-2.328;2023-11-19T06:53:49;20.95;;;3.90;;
24681;SDS011;12802;53.390;-2.328;2023-11-19T06:58:44;26.08;;;4.60;;
24681;SDS011;12802;53.390;-2.328;2023-11-19T07:01:10;24.40;;;4.65;;
24681;SDS011;12802;53.390;-2.328;2023-11-19T07:03:37;24.17;;;4.28;;
24681;SDS011;12802;53.390;-2.328;2023-11-19T07:06:03;22.95;;;4.82;;
24681;SDS011;12802;53.390;-2.328;2023-11-19T07:08:30;33.20;;;4.93;;
24681;SDS011;12802;53.390;-2.328;2023-11-19T07:10:56;28.20;;;5.05;;
24681;SDS011;12802;53.390;-2.328;2023-11-19T07:13:23;25.88;;;4.82;;
24681;SDS011;12802;53.390;-2.328;2023-11-19T07:15:49;22.20;;;4.68;;
24681;SDS011;12802;53.390;-2.328;2023-11-19T07:18:15;25.55;;;5.15;;
24681;SDS011;12802;53.390;-2.328;2023-11-19T07:20:41;23.92;;;4.40;;
24681;SDS011;12802;53.390;-2.328;2023-11-19T07:23:07;26.48;;;4.78;;
24681;SDS011;12802;53.390;-2.328;2023-11-19T07:25:33;26.15;;;4.35;;
24681;SDS011;12802;53.390;-2.328;2023-11-19T07:28:00;26.90;;;4.47;;
24681;SDS011;12802;53.390;-2.328;2023-11-19T07:30:29;31.33;;;4.93;;
24681;SDS011;12802;53.390;-2.328;2023-11-19T07:32:55;24.05;;;5.10;;
24681;SDS011;12802;53.390;-2.328;2023-11-19T07:35:21;25.40;;;4.65;;
24681;SDS011;12802;53.390;-2.328;2023-11-19T07:37:48;30.40;;;5.13;;
24681;SDS011;12802;53.390;-2.328;2023-11-19T07:40:15;26.20;;;4.55;;
24681;SDS011;12802;53.390;-2.328;2023-11-19T07:42:41;26.80;;;4.88;;
24681;SDS011;12802;53.390;-2.328;2023-11-19T07:45:07;26.85;;;5.32;;
24681;SDS011;12802;53.390;-2.328;2023-11-19T07:47:33;29.88;;;5.65;;
24681;SDS011;12802;53.390;-2.328;2023-11-19T07:49:59;29.10;;;5.05;;
24681;SDS011;12802;53.390;-2.328;2023-11-19T07:52:26;31.25;;;5.47;;
24681;SDS011;12802;53.390;-2.328;2023-11-19T07:54:52;32.13;;;5.75;;
24681;SDS011;12802;53.390;-2.328;2023-11-19T07:57:18;28.92;;;5.63;;
24681;SDS011;12802;53.390;-2.328;2023-11-19T07:59:45;32.83;;;5.70;;
24681;SDS011;12802;53.390;-2.328;2023-11-19T08:02:11;29.90;;;5.80;;
24681;SDS011;12802;53.390;-2.328;2023-11-19T08:04:37;35.28;;;7.43;;
24681;SDS011;12802;53.390;-2.328;2023-11-19T08:07:06;42.13;;;7.75;;
24681;SDS011;12802;53.390;-2.328;2023-11-19T08:09:32;35.97;;;7.95;;
24681;SDS011;12802;53.390;-2.328;2023-11-19T08:11:58;38.88;;;7.50;;
24681;SDS011;12802;53.390;-2.328;2023-11-19T08:14:24;31.92;;;7.13;;
24681;SDS011;12802;53.390;-2.328;2023-11-19T08:16:50;33.85;;;7.65;;
24681;SDS011;12802;53.390;-2.328;2023-11-19T08:19:16;32.33;;;7.18;;
24681;SDS011;12802;53.390;-2.328;2023-11-19T08:21:42;34.50;;;7.57;;
24681;SDS011;12802;53.390;-2.328;2023-11-19T08:24:08;34.42;;;7.45;;
24681;SDS011;12802;53.390;-2.328;2023-11-19T08:26:34;29.42;;;6.68;;
24681;SDS011;12802;53.390;-2.328;2023-11-19T08:29:00;34.95;;;7.10;;
24681;SDS011;12802;53.390;-2.328;2023-11-19T08:31:27;29.88;;;6.70;;
24681;SDS011;12802;53.390;-2.328;2023-11-19T08:33:53;29.48;;;6.72;;
24681;SDS011;12802;53.390;-2.328;2023-11-19T08:36:19;33.97;;;7.18;;
24681;SDS011;12802;53.390;-2.328;2023-11-19T08:38:45;30.02;;;6.13;;
24681;SDS011;12802;53.390;-2.328;2023-11-19T08:41:13;31.40;;;6.95;;
24681;SDS011;12802;53.390;-2.328;2023-11-19T08:43:39;26.00;;;6.28;;
24681;SDS011;12802;53.390;-2.328;2023-11-19T08:46:13;29.08;;;6.35;;
24681;SDS011;12802;53.390;-2.328;2023-11-19T08:48:39;28.73;;;6.43;;
24681;SDS011;12802;53.390;-2.328;2023-11-19T08:51:05;28.15;;;6.18;;
24681;SDS011;12802;53.390;-2.328;2023-11-19T08:53:31;28.52;;;6.75;;
24681;SDS011;12802;53.390;-2.328;2023-11-19T08:55:58;26.73;;;6.03;;
24681;SDS011;12802;53.390;-2.328;2023-11-19T08:58:24;28.20;;;5.72;;
24681;SDS011;12802;53.390;-2.328;2023-11-19T09:00:50;23.90;;;6.30;;
24681;SDS011;12802;53.390;-2.328;2023-11-19T09:03:16;31.40;;;6.03;;
24681;SDS011;12802;53.390;-2.328;2023-11-19T09:05:42;26.88;;;6.05;;
24681;SDS011;12802;53.390;-2.328;2023-11-19T09:08:08;25.08;;;5.35;;
24681;SDS011;12802;53.390;-2.328;2023-11-19T09:10:34;22.90;;;5.32;;
24681;SDS011;12802;53.390;-2.328;2023-11-19T09:13:00;26.90;;;5.45;;
24681;SDS011;12802;53.390;-2.328;2023-11-19T09:15:27;23.75;;;5.10;;
24681;SDS011;12802;53.390;-2.328;2023-11-19T09:17:53;30.45;;;5.43;;
24681;SDS011;12802;53.390;-2.328;2023-11-19T09:20:19;21.50;;;5.22;;
24681;SDS011;12802;53.390;-2.328;2023-11-19T09:22:45;27.63;;;5.30;;
24681;SDS011;12802;53.390;-2.328;2023-11-19T09:25:11;22.85;;;4.85;;
24681;SDS011;12802;53.390;-2.328;2023-11-19T09:27:42;24.60;;;4.88;;
24681;SDS011;12802;53.390;-2.328;2023-11-19T09:30:08;20.95;;;4.90;;
24681;SDS011;12802;53.390;-2.328;2023-11-19T09:32:34;22.52;;;4.80;;
24681;SDS011;12802;53.390;-2.328;2023-11-19T09:35:02;23.02;;;5.10;;
24681;SDS011;12802;53.390;-2.328;2023-11-19T09:37:28;28.23;;;5.88;;
24681;SDS011;12802;53.390;-2.328;2023-11-19T09:39:55;27.92;;;4.95;;
24681;SDS011;12802;53.390;-2.328;2023-11-19T09:42:21;23.42;;;4.68;;
24681;SDS011;12802;53.390;-2.328;2023-11-19T09:44:49;26.65;;;5.05;;
24681;SDS011;12802;53.390;-2.328;2023-11-19T09:47:16;27.27;;;5.22;;
24681;SDS011;12802;53.390;-2.328;2023-11-19T09:49:43;19.63;;;4.22;;
24681;SDS011;12802;53.390;-2.328;2023-11-19T09:52:09;27.92;;;5.38;;
24681;SDS011;12802;53.390;-2.328;2023-11-19T09:54:35;19.25;;;4.55;;
24681;SDS011;12802;53.390;-2.328;2023-11-19T09:57:01;22.00;;;4.38;;
24681;SDS011;12802;53.390;-2.328;2023-11-19T09:59:31;25.58;;;4.72;;
24681;SDS011;12802;53.390;-2.328;2023-11-19T10:01:58;28.33;;;4.68;;
24681;SDS011;12802;53.390;-2.328;2023-11-19T10:04:25;22.13;;;4.68;;
24681;SDS011;12802;53.390;-2.328;2023-11-19T10:06:53;20.42;;;4.50;;
24681;SDS011;12802;53.390;-2.328;2023-11-19T10:09:19;23.85;;;4.50;;
24681;SDS011;12802;53.390;-2.328;2023-11-19T10:11:45;20.13;;;4.47;;
24681;SDS011;12802;53.390;-2.328;2023-11-19T10:14:11;14.13;;;3.35;;
24681;SDS011;12802;53.390;-2.328;2023-11-19T10:16:37;17.75;;;3.92;;
24681;SDS011;12802;53.390;-2.328;2023-11-19T10:19:04;21.02;;;4.05;;
24681;SDS011;12802;53.390;-2.328;2023-11-19T10:21:32;20.13;;;3.63;;
24681;SDS011;12802;53.390;-2.328;2023-11-19T10:23:59;17.80;;;2.97;;
24681;SDS011;12802;53.390;-2.328;2023-11-19T10:26:25;18.05;;;3.65;;
24681;SDS011;12802;53.390;-2.328;2023-11-19T10:28:52;16.98;;;3.17;;
24681;SDS011;12802;53.390;-2.328;2023-11-19T10:31:19;14.05;;;3.20;;
24681;SDS011;12802;53.390;-2.328;2023-11-19T10:33:52;18.45;;;3.38;;
24681;SDS011;12802;53.390;-2.328;2023-11-19T10:36:18;11.95;;;3.13;;
24681;SDS011;12802;53.390;-2.328;2023-11-19T10:38:51;17.13;;;3.72;;
24681;SDS011;12802;53.390;-2.328;2023-11-19T10:41:28;13.38;;;3.08;;
24681;SDS011;12802;53.390;-2.328;2023-11-19T10:43:54;13.60;;;3.03;;
24681;SDS011;12802;53.390;-2.328;2023-11-19T10:46:20;13.50;;;3.10;;
24681;SDS011;12802;53.390;-2.328;2023-11-19T10:48:48;20.42;;;3.78;;
24681;SDS011;12802;53.390;-2.328;2023-11-19T10:51:16;18.90;;;3.30;;
24681;SDS011;12802;53.390;-2.328;2023-11-19T10:53:47;13.95;;;3.15;;
24681;SDS011;12802;53.390;-2.328;2023-11-19T10:56:16;14.57;;;2.92;;
24681;SDS011;12802;53.390;-2.328;2023-11-19T10:58:44;13.40;;;2.80;;
24681;SDS011;12802;53.390;-2.328;2023-11-19T11:01:13;15.43;;;2.92;;
24681;SDS011;12802;53.390;-2.328;2023-11-19T11:03:42;17.25;;;2.58;;
24681;SDS011;12802;53.390;-2.328;2023-11-19T11:06:08;15.75;;;3.00;;
24681;SDS011;12802;53.390;-2.328;2023-11-19T11:08:36;15.65;;;3.17;;
24681;SDS011;12802;53.390;-2.328;2023-11-19T11:11:04;16.48;;;2.80;;
24681;SDS011;12802;53.390;-2.328;2023-11-19T11:13:31;13.48;;;2.53;;
24681;SDS011;12802;53.390;-2.328;2023-11-19T11:15:58;14.82;;;2.60;;
24681;SDS011;12802;53.390;-2.328;2023-11-19T11:18:24;13.38;;;3.05;;
24681;SDS011;12802;53.390;-2.328;2023-11-19T11:21:13;12.95;;;3.03;;
24681;SDS011;12802;53.390;-2.328;2023-11-19T11:28:43;9.15;;;2.40;;
24681;SDS011;12802;53.390;-2.328;2023-11-19T11:31:48;10.98;;;2.38;;
24681;SDS011;12802;53.390;-2.328;2023-11-19T11:36:57;12.60;;;2.38;;
24681;SDS011;12802;53.390;-2.328;2023-11-19T11:39:24;12.20;;;2.40;;
24681;SDS011;12802;53.390;-2.328;2023-11-19T11:42:24;9.98;;;2.78;;
24681;SDS011;12802;53.390;-2.328;2023-11-19T11:47:59;10.10;;;2.33;;
24681;SDS011;12802;53.390;-2.328;2023-11-19T11:50:15;12.60;;;2.28;;
24681;SDS011;12802;53.390;-2.328;2023-11-19T11:55:33;7.68;;;1.50;;
24681;SDS011;12802;53.390;-2.328;2023-11-19T11:58:00;9.35;;;1.65;;
24681;SDS011;12802;53.390;-2.328;2023-11-19T12:00:26;7.22;;;1.90;;
24681;SDS011;12802;53.390;-2.328;2023-11-19T12:02:56;8.55;;;1.90;;
24681;SDS011;12802;53.390;-2.328;2023-11-19T12:05:23;5.18;;;1.45;;
24681;SDS011;12802;53.390;-2.328;2023-11-19T12:07:57;6.93;;;1.70;;
24681;SDS011;12802;53.390;-2.328;2023-11-19T12:10:26;4.55;;;1.10;;
24681;SDS011;12802;53.390;-2.328;2023-11-19T12:13:00;4.82;;;1.17;;
24681;SDS011;12802;53.390;-2.328;2023-11-19T12:15:27;5.25;;;1.10;;
24681;SDS011;12802;53.390;-2.328;2023-11-19T12:17:53;3.10;;;1.05;;
24681;SDS011;12802;53.390;-2.328;2023-11-19T12:20:23;6.18;;;1.00;;
24681;SDS011;12802;53.390;-2.328;2023-11-19T12:22:51;4.55;;;1.00;;
24681;SDS011;12802;53.390;-2.328;2023-11-19T12:25:18;4.47;;;1.10;;
24681;SDS011;12802;53.390;-2.328;2023-11-19T12:27:46;4.63;;;1.20;;
24681;SDS011;12802;53.390;-2.328;2023-11-19T12:30:12;2.63;;;1.00;;
24681;SDS011;12802;53.390;-2.328;2023-11-19T12:32:42;6.13;;;0.90;;
24681;SDS011;12802;53.390;-2.328;2023-11-19T12:37:43;3.28;;;0.80;;
24681;SDS011;12802;53.390;-2.328;2023-11-19T12:40:25;5.70;;;1.23;;
24681;SDS011;12802;53.390;-2.328;2023-11-19T12:42:52;4.18;;;1.17;;
24681;SDS011;12802;53.390;-2.328;2023-11-19T12:45:18;6.53;;;1.10;;
24681;SDS011;12802;53.390;-2.328;2023-11-19T12:47:46;4.90;;;1.27;;
24681;SDS011;12802;53.390;-2.328;2023-11-19T12:50:16;5.35;;;1.33;;
24681;SDS011;12802;53.390;-2.328;2023-11-19T12:55:25;5.40;;;1.40;;
24681;SDS011;12802;53.390;-2.328;2023-11-19T12:57:52;5.82;;;0.98;;
24681;SDS011;12802;53.390;-2.328;2023-11-19T13:00:24;4.95;;;1.40;;
24681;SDS011;12802;53.390;-2.328;2023-11-19T13:02:54;4.22;;;1.38;;
24681;SDS011;12802;53.390;-2.328;2023-11-19T13:05:31;3.75;;;1.67;;
24681;SDS011;12802;53.390;-2.328;2023-11-19T13:08:08;7.03;;;1.83;;
24681;SDS011;12802;53.390;-2.328;2023-11-19T13:10:53;6.22;;;2.00;;
24681;SDS011;12802;53.390;-2.328;2023-11-19T13:13:19;6.60;;;1.60;;
24681;SDS011;12802;53.390;-2.328;2023-11-19T13:15:45;8.27;;;1.73;;
24681;SDS011;12802;53.390;-2.328;2023-11-19T13:18:12;7.15;;;2.00;;
24681;SDS011;12802;53.390;-2.328;2023-11-19T13:20:41;8.48;;;1.73;;
24681;SDS011;12802;53.390;-2.328;2023-11-19T13:23:07;8.25;;;1.75;;
24681;SDS011;12802;53.390;-2.328;2023-11-19T13:25:34;6.07;;;1.80;;
24681;SDS011;12802;53.390;-2.328;2023-11-19T13:28:00;5.35;;;1.67;;
24681;SDS011;12802;53.390;-2.328;2023-11-19T13:30:27;8.00;;;1.25;;
24681;SDS011;12802;53.390;-2.328;2023-11-19T13:32:54;9.07;;;1.80;;
24681;SDS011;12802;53.390;-2.328;2023-11-19T13:35:20;9.23;;;1.83;;
24681;SDS011;12802;53.390;-2.328;2023-11-19T13:37:47;9.13;;;1.73;;
24681;SDS011;12802;53.390;-2.328;2023-11-19T13:40:13;6.25;;;1.40;;
24681;SDS011;12802;53.390;-2.328;2023-11-19T13:42:43;7.13;;;1.60;;
24681;SDS011;12802;53.390;-2.328;2023-11-19T13:45:10;10.95;;;1.88;;
24681;SDS011;12802;53.390;-2.328;2023-11-19T13:47:41;6.70;;;1.67;;
24681;SDS011;12802;53.390;-2.328;2023-11-19T13:50:08;9.85;;;1.85;;
24681;SDS011;12802;53.390;-2.328;2023-11-19T13:52:35;9.57;;;1.80;;
24681;SDS011;12802;53.390;-2.328;2023-11-19T13:55:03;9.18;;;1.88;;
24681;SDS011;12802;53.390;-2.328;2023-11-19T13:57:30;9.85;;;2.15;;
24681;SDS011;12802;53.390;-2.328;2023-11-19T13:59:56;9.43;;;1.67;;
24681;SDS011;12802;53.390;-2.328;2023-11-19T14:02:23;9.98;;;1.77;;
24681;SDS011;12802;53.390;-2.328;2023-11-19T14:04:49;10.50;;;2.13;;
24681;SDS011;12802;53.390;-2.328;2023-11-19T14:07:15;11.27;;;2.40;;
24681;SDS011;12802;53.390;-2.328;2023-11-19T14:09:42;6.95;;;1.75;;
24681;SDS011;12802;53.390;-2.328;2023-11-19T14:12:08;9.43;;;1.90;;
24681;SDS011;12802;53.390;-2.328;2023-11-19T14:14:34;9.57;;;2.47;;
24681;SDS011;12802;53.390;-2.328;2023-11-19T14:17:04;10.98;;;2.05;;
24681;SDS011;12802;53.390;-2.328;2023-11-19T14:19:30;6.00;;;2.33;;
24681;SDS011;12802;53.390;-2.328;2023-11-19T14:21:56;7.10;;;2.55;;
24681;SDS011;12802;53.390;-2.328;2023-11-19T14:24:22;7.60;;;2.08;;
24681;SDS011;12802;53.390;-2.328;2023-11-19T14:26:49;8.35;;;1.85;;
24681;SDS011;12802;53.390;-2.328;2023-11-19T14:29:16;10.50;;;2.08;;
24681;SDS011;12802;53.390;-2.328;2023-11-19T14:31:43;10.35;;;2.60;;
24681;SDS011;12802;53.390;-2.328;2023-11-19T14:34:09;8.27;;;2.75;;
24681;SDS011;12802;53.390;-2.328;2023-11-19T14:36:35;7.88;;;1.92;;
24681;SDS011;12802;53.390;-2.328;2023-11-19T14:39:01;7.32;;;1.92;;
24681;SDS011;12802;53.390;-2.328;2023-11-19T14:41:28;8.50;;;1.92;;
24681;SDS011;12802;53.390;-2.328;2023-11-19T14:43:55;6.93;;;2.00;;
24681;SDS011;12802;53.390;-2.328;2023-11-19T14:46:21;9.73;;;2.28;;
24681;SDS011;12802;53.390;-2.328;2023-11-19T14:48:47;8.57;;;2.10;;
24681;SDS011;12802;53.390;-2.328;2023-11-19T14:51:13;9.38;;;2.15;;
24681;SDS011;12802;53.390;-2.328;2023-11-19T14:53:39;6.82;;;2.08;;
24681;SDS011;12802;53.390;-2.328;2023-11-19T14:56:05;6.72;;;2.33;;